Portada
METAR-TAF:

METAR-TAF

Aeroports :

Aeroport Internacional Diori Hamani

Niamey, Níger

latitud: 13-29N, longitud: 002-10E, altitud: 223 m

Observació

L'informe es va fer fa 52 minuts, a les 00:00 UTC
Vent 4 kt del Sud-Oest
Temperatura 26°C
Humitat 89%
Pressió 1013 hPa
Visibilitat 10 km o més
sense núvols per sota de 1500 mi sense presència de cumulonimbus.

METAR: DRRN 200000Z 23004KT CAVOK 26/24 Q1013 NOSIG

Hora: 01:52 (00:52 UTC)

Pronòstic

L'informe es va fer fa 1 hora i 52 minuts, a les 23:00 UTC
Pronòstic vàlid del 20 a les 00 UTC al 21 a les 06 UTC
Vent 8 kt del Oest/Sud-Oest
Visibilitat 10 km o més
Núvols disperses a una alçada de 2000 ft
Probabilitat 40%
l' 20 a les 16 UTC al 20 a les 21 UTC
Vent 20 kt amb direcció variable
Visibilitat: 3000 m
Cel ennuvolat a una alçada de 2000 ft
Escasses núvols a una alçada de 2500 ft, Cumulonimbus.
tempesta, pluja

TAF: DRRN 192300Z 2000/2106 24008KT 9999 SCT020 PROB40 2016/2021 VRB20KT 3000 TSRA BKN020 FEW025CB

Observacions i pronòstics meteorològics de més de 4000 aeroports (METAR i TAF).

Les estacions disponibles són els punts grocs i vermells al mapa.

Posi el ratolí al punt desitjat per veure el nom de l'estació.

Feu clic per veure les observacions i els pronòstics meteorològics.

Per canviar el mapa: feu clic els botons verds amb una creu de color negre per apropar; al botó verd amb un guió per allunyar la imatge; o en les fletxes verdes per a mapes adjacents.


METAR-TAF: